Magdalena, New Mexico
Current Conditions -  °F | °C
As of 11:15 PM on Thursday 30 Oct 2014 (Local Time) from KONM Reporting Station
Clear Clear  
Wind Chill: 56°   Ceiling: Unl
Heat Index: 56°   Visibility: 10mi
Dew Point: 27°   Wind: 0mph
Humidity: 34%   Direction: NA
Pressure: 30.3"   Gusts: NA
Location:  34.12°N, 107.24°W
Report Text: KONM 310515Z AUTO 00000KT 10SM CLR 13/M03 A3030 RMK AO2 T01321026
Loading
Personal Weather Stations






























Interactive Weather Map
Tropical Storm Tracking
New forecast layout! Learn more

10-Day Weather Forecast

Advertisements
Track Severe Weather on mobile